createdAt,value
2023-04-07T00:02:06.333Z,6.80
2023-04-07T00:04:33.064Z,7.68
2023-04-07T00:06:59.730Z,7.45
2023-04-07T00:09:26.393Z,7.25
2023-04-07T00:11:52.947Z,6.78
2023-04-07T00:14:19.677Z,6.85
2023-04-07T00:16:46.244Z,7.72
2023-04-07T00:19:12.852Z,7.82
2023-04-07T00:21:39.344Z,7.78
2023-04-07T00:24:06.034Z,8.50
2023-04-07T00:26:33.083Z,7.95
2023-04-07T00:29:00.227Z,7.93
2023-04-07T00:31:27.211Z,8.30
2023-04-07T00:33:53.971Z,8.55
2023-04-07T00:36:20.925Z,6.90
2023-04-07T00:38:47.427Z,7.03
2023-04-07T00:41:13.977Z,7.38
2023-04-07T00:43:40.562Z,7.40
2023-04-07T00:46:07.389Z,7.85
2023-04-07T00:48:34.180Z,7.65
2023-04-07T00:51:00.946Z,7.80
2023-04-07T00:53:27.529Z,7.43
2023-04-07T00:55:54.168Z,7.13
2023-04-07T00:58:20.799Z,7.28
2023-04-07T01:01:03.678Z,7.35
2023-04-07T01:03:52.699Z,6.88
2023-04-07T01:06:24.796Z,8.00
2023-04-07T01:09:00.795Z,7.43
2023-04-07T01:11:44.387Z,7.25
2023-04-07T01:14:14.835Z,7.55
2023-04-07T01:16:51.161Z,7.30
2023-04-07T01:19:45.815Z,7.32
2023-04-07T01:22:53.792Z,7.97
2023-04-07T01:25:42.052Z,7.45
2023-04-07T01:28:27.189Z,6.20
2023-04-07T01:30:58.271Z,7.22
2023-04-07T01:33:26.076Z,7.38
2023-04-07T01:35:54.505Z,7.15
2023-04-07T01:38:21.573Z,7.53
2023-04-07T01:40:55.316Z,7.13
2023-04-07T01:43:23.269Z,7.95
2023-04-07T01:45:51.159Z,8.07
2023-04-07T01:48:18.400Z,7.57
2023-04-07T01:50:45.899Z,7.85
2023-04-07T01:53:13.041Z,7.82
2023-04-07T01:55:40.029Z,8.52
2023-04-07T01:58:07.826Z,9.27
2023-04-07T02:00:34.758Z,8.48
2023-04-07T02:03:23.971Z,10.10
2023-04-07T02:05:57.612Z,8.43
2023-04-07T02:08:27.823Z,6.30
2023-04-07T02:10:55.988Z,8.48
2023-04-07T02:13:24.021Z,7.60
2023-04-07T02:15:51.875Z,6.57
2023-04-07T02:18:20.085Z,10.57
2023-04-07T02:20:47.963Z,10.60
2023-04-07T02:23:14.610Z,6.65
2023-04-07T02:25:41.197Z,9.27
2023-04-07T02:28:07.858Z,9.95
2023-04-07T02:30:35.664Z,9.30
2023-04-07T02:33:02.390Z,9.32
2023-04-07T02:35:28.892Z,8.85
2023-04-07T02:37:55.405Z,8.63
2023-04-07T02:40:21.964Z,8.95
2023-04-07T02:42:48.471Z,8.13
2023-04-07T02:45:16.000Z,8.73
2023-04-07T02:47:42.690Z,7.85
2023-04-07T02:50:09.842Z,9.73
2023-04-07T02:52:36.484Z,8.43
2023-04-07T02:55:03.568Z,7.30
2023-04-07T02:57:30.243Z,8.52
2023-04-07T02:59:58.121Z,8.43
2023-04-07T03:02:25.155Z,7.40
2023-04-07T03:04:53.161Z,6.85
2023-04-07T03:07:19.926Z,7.18
2023-04-07T03:09:46.675Z,6.88
2023-04-07T03:12:13.219Z,6.60
2023-04-07T03:14:39.748Z,7.40
2023-04-07T03:17:06.321Z,6.05
2023-04-07T03:19:32.880Z,6.53
2023-04-07T03:21:59.462Z,4.45
2023-04-07T03:24:26.189Z,7.97
2023-04-07T03:26:52.758Z,6.95
2023-04-07T03:29:19.723Z,6.50
2023-04-07T03:31:46.621Z,7.57
2023-04-07T03:34:13.379Z,5.13
2023-04-07T03:36:41.125Z,7.05
2023-04-07T03:39:07.638Z,6.78
2023-04-07T03:41:34.113Z,6.00
2023-04-07T03:44:00.630Z,7.22
2023-04-07T03:46:27.443Z,6.63
2023-04-07T03:48:54.156Z,7.32
2023-04-07T03:51:20.852Z,6.05
2023-04-07T03:53:47.424Z,6.10
2023-04-07T03:56:14.072Z,6.65
2023-04-07T03:58:42.730Z,6.35
2023-04-07T04:01:09.351Z,5.20
2023-04-07T04:03:36.171Z,6.32
2023-04-07T04:06:02.944Z,5.75
2023-04-07T04:08:29.653Z,5.25
2023-04-07T04:10:56.214Z,5.97
2023-04-07T04:13:22.709Z,3.60
2023-04-07T04:15:49.298Z,6.63
2023-04-07T04:18:16.150Z,6.50
2023-04-07T04:20:43.256Z,4.78
2023-04-07T04:23:09.895Z,5.78
2023-04-07T04:25:36.452Z,6.13
2023-04-07T04:28:08.740Z,5.00
2023-04-07T04:30:35.445Z,4.55
2023-04-07T04:33:03.205Z,6.10
2023-04-07T04:35:29.862Z,5.97
2023-04-07T04:37:56.594Z,4.55
2023-04-07T04:40:23.117Z,6.43
2023-04-07T04:42:49.676Z,5.25
2023-04-07T04:45:16.280Z,5.80
2023-04-07T04:47:44.113Z,5.63
2023-04-07T04:50:11.139Z,6.38
2023-04-07T04:52:39.379Z,5.90
2023-04-07T04:55:06.705Z,5.53
2023-04-07T04:57:45.548Z,3.95
2023-04-07T05:00:12.654Z,4.82
2023-04-07T05:02:39.615Z,5.30
2023-04-07T05:05:07.133Z,5.50
2023-04-07T05:07:33.748Z,7.05
2023-04-07T05:10:00.208Z,6.32
2023-04-07T05:12:27.322Z,6.03
2023-04-07T05:14:53.842Z,6.15
2023-04-07T05:17:20.520Z,6.30
2023-04-07T05:19:47.063Z,5.43
2023-04-07T05:22:13.767Z,6.38
2023-04-07T05:24:40.697Z,5.72
2023-04-07T05:27:07.297Z,5.15
2023-04-07T05:29:33.820Z,4.20
2023-04-07T05:32:01.660Z,5.45
2023-04-07T05:34:28.320Z,5.95
2023-04-07T05:36:54.802Z,4.82
2023-04-07T05:39:21.354Z,6.20
2023-04-07T05:41:47.810Z,5.28
2023-04-07T05:44:17.306Z,5.32
2023-04-07T05:46:57.897Z,5.00
2023-04-07T05:49:24.470Z,5.10
2023-04-07T05:51:50.976Z,4.88
2023-04-07T05:54:17.542Z,3.45
2023-04-07T05:56:44.053Z,3.85
2023-04-07T05:59:10.683Z,4.20
2023-04-07T06:01:37.226Z,4.70
2023-04-07T06:04:04.330Z,4.03
2023-04-07T06:06:31.429Z,3.17
2023-04-07T06:08:58.046Z,4.18
2023-04-07T06:11:24.522Z,4.80
2023-04-07T06:13:51.275Z,4.78
2023-04-07T06:16:19.533Z,4.15
2023-04-07T06:18:46.381Z,5.80
2023-04-07T06:21:12.905Z,4.82
2023-04-07T06:23:39.424Z,4.78
2023-04-07T06:26:06.177Z,4.78
2023-04-07T06:28:32.745Z,5.13
2023-04-07T06:30:59.769Z,4.88
2023-04-07T06:33:28.466Z,4.47
2023-04-07T06:35:55.024Z,3.88
2023-04-07T06:38:21.730Z,4.88
2023-04-07T06:40:48.221Z,4.10
2023-04-07T06:43:14.721Z,4.90
2023-04-07T06:45:41.319Z,5.30
2023-04-07T06:48:08.097Z,4.10
2023-04-07T06:50:34.740Z,4.35
2023-04-07T06:53:01.359Z,4.03
2023-04-07T06:55:27.922Z,4.43
2023-04-07T06:57:54.512Z,4.53
2023-04-07T07:00:22.997Z,5.95
2023-04-07T07:02:50.799Z,3.85
2023-04-07T07:05:17.488Z,3.83
2023-04-07T07:07:43.973Z,4.00
2023-04-07T07:10:11.061Z,3.85
2023-04-07T07:12:37.621Z,3.75
2023-04-07T07:15:04.593Z,3.60
2023-04-07T07:17:31.230Z,3.95
2023-04-07T07:19:57.764Z,4.25
2023-04-07T07:22:24.469Z,4.22
2023-04-07T07:24:51.138Z,4.40
2023-04-07T07:27:17.661Z,3.95
2023-04-07T07:29:44.201Z,5.75
2023-04-07T07:32:10.699Z,4.00
2023-04-07T07:34:37.252Z,3.47
2023-04-07T07:37:03.847Z,4.97
2023-04-07T07:39:30.572Z,4.60
2023-04-07T07:41:57.316Z,4.78
2023-04-07T07:44:23.967Z,4.80
2023-04-07T07:46:51.370Z,5.18
2023-04-07T07:49:18.027Z,5.22
2023-04-07T07:51:46.690Z,5.88
2023-04-07T07:54:13.649Z,5.18
2023-04-07T07:56:40.496Z,4.97
2023-04-07T07:59:07.133Z,5.20
2023-04-07T08:01:33.645Z,6.13
2023-04-07T08:04:00.481Z,5.43
2023-04-07T08:06:29.273Z,5.68
2023-04-07T08:08:55.999Z,5.28
2023-04-07T08:11:23.153Z,4.53
2023-04-07T08:13:49.957Z,4.97
2023-04-07T08:16:16.898Z,5.43
2023-04-07T08:18:43.512Z,5.28
2023-04-07T08:21:10.031Z,5.55
2023-04-07T08:23:36.537Z,5.65
2023-04-07T08:26:03.152Z,4.75
2023-04-07T08:28:29.652Z,5.72
2023-04-07T08:30:56.258Z,5.30
2023-04-07T08:33:22.781Z,5.50
2023-04-07T08:35:49.345Z,4.63
2023-04-07T08:38:16.209Z,6.15
2023-04-07T08:40:55.444Z,5.28
2023-04-07T08:43:22.653Z,6.10
2023-04-07T08:45:52.977Z,5.72
2023-04-07T08:48:26.866Z,5.78
2023-04-07T08:50:54.698Z,3.70
2023-04-07T08:53:28.215Z,5.88
2023-04-07T08:55:56.479Z,5.53
2023-04-07T08:58:23.889Z,5.45
2023-04-07T09:00:50.930Z,6.07
2023-04-07T09:03:18.445Z,4.78
2023-04-07T09:05:48.533Z,6.28
2023-04-07T09:08:15.119Z,6.00
2023-04-07T09:10:41.836Z,4.93
2023-04-07T09:13:08.478Z,5.63
2023-04-07T09:15:38.013Z,6.05
2023-04-07T09:18:06.549Z,4.85
2023-04-07T09:21:02.606Z,4.97
2023-04-07T09:23:37.235Z,5.10
2023-04-07T09:26:24.855Z,6.55
2023-04-07T09:29:03.229Z,5.50
2023-04-07T09:31:59.287Z,4.05
2023-04-07T09:34:28.303Z,5.60
2023-04-07T09:36:56.704Z,5.40
2023-04-07T09:39:23.861Z,6.07
2023-04-07T09:41:51.304Z,5.93
2023-04-07T09:44:22.068Z,5.72
2023-04-07T09:46:53.331Z,5.80
2023-04-07T09:49:21.298Z,6.25
2023-04-07T09:52:00.122Z,6.20
2023-04-07T09:54:35.938Z,6.65
2023-04-07T09:57:04.444Z,7.10
2023-04-07T09:59:32.383Z,6.78
2023-04-07T10:01:59.437Z,6.90
2023-04-07T10:04:26.535Z,7.03
2023-04-07T10:06:54.418Z,6.85
2023-04-07T10:09:24.093Z,7.05
2023-04-07T10:11:51.912Z,6.65
2023-04-07T10:14:19.763Z,5.05
2023-04-07T10:16:48.404Z,5.60
2023-04-07T10:19:16.498Z,5.28
2023-04-07T10:21:44.026Z,5.30
2023-04-07T10:24:47.750Z,4.35
2023-04-07T10:27:22.916Z,5.13
2023-04-07T10:29:52.774Z,4.85
2023-04-07T10:32:19.403Z,3.83
2023-04-07T10:34:53.489Z,4.28
2023-04-07T10:37:23.893Z,4.10
2023-04-07T10:40:11.777Z,4.80
2023-04-07T10:42:38.830Z,4.43
2023-04-07T10:45:07.134Z,4.43
2023-04-07T10:47:34.246Z,4.82
2023-04-07T10:50:18.418Z,4.65
2023-04-07T10:52:47.443Z,4.50
2023-04-07T10:55:38.626Z,4.93
2023-04-07T10:58:39.830Z,4.72
2023-04-07T11:01:06.414Z,5.75
2023-04-07T11:03:40.799Z,4.20
2023-04-07T11:06:11.880Z,2.33
2023-04-07T11:08:48.950Z,3.95
2023-04-07T11:11:34.842Z,3.97
2023-04-07T11:14:01.613Z,4.25
2023-04-07T11:16:39.945Z,4.20
2023-04-07T11:19:06.694Z,4.55
2023-04-07T11:21:33.408Z,4.82
2023-04-07T11:24:00.060Z,4.82
2023-04-07T11:26:27.657Z,4.97
2023-04-07T11:28:55.774Z,4.57
2023-04-07T11:31:26.815Z,4.85
2023-04-07T11:33:59.257Z,4.55
2023-04-07T11:36:34.743Z,4.40
2023-04-07T11:39:02.535Z,4.50
2023-04-07T11:41:31.409Z,4.18
2023-04-07T11:44:08.488Z,3.80
2023-04-07T11:46:36.219Z,4.03
2023-04-07T11:49:14.083Z,5.28
2023-04-07T11:51:42.879Z,3.95
2023-04-07T11:54:11.261Z,5.45
2023-04-07T11:56:46.180Z,4.15
2023-04-07T11:59:23.392Z,4.35
2023-04-07T12:01:51.321Z,4.10
2023-04-07T12:04:18.718Z,4.00
2023-04-07T12:06:47.236Z,5.25
2023-04-07T12:09:36.214Z,5.30
2023-04-07T12:12:05.748Z,5.57
2023-04-07T12:14:33.035Z,5.45
2023-04-07T12:17:01.976Z,6.05
2023-04-07T12:21:56.601Z,5.95
2023-04-07T12:24:23.903Z,5.47
2023-04-07T12:26:50.605Z,5.43
2023-04-07T12:29:17.970Z,4.85
2023-04-07T12:31:45.469Z,5.68
2023-04-07T12:34:12.095Z,5.28
2023-04-07T12:36:38.728Z,5.63
2023-04-07T12:39:05.300Z,5.43
2023-04-07T12:41:32.452Z,5.68
2023-04-07T12:43:59.017Z,4.72
2023-04-07T12:46:25.657Z,5.38
2023-04-07T12:48:52.198Z,5.38
2023-04-07T12:51:18.797Z,4.47
2023-04-07T12:53:47.723Z,5.65
2023-04-07T12:56:14.487Z,4.57
2023-04-07T12:58:42.965Z,4.47
2023-04-07T13:01:10.098Z,5.47
2023-04-07T13:03:37.310Z,4.85
2023-04-07T13:06:04.573Z,6.10
2023-04-07T13:08:31.530Z,4.93
2023-04-07T13:10:58.055Z,5.78
2023-04-07T13:13:24.878Z,5.05
2023-04-07T13:15:51.671Z,5.80
2023-04-07T13:18:18.252Z,4.85
2023-04-07T13:20:54.351Z,5.50
2023-04-07T13:25:59.559Z,5.43
2023-04-07T13:28:26.423Z,5.28
2023-04-07T13:30:53.342Z,5.35
2023-04-07T13:33:20.026Z,5.40
2023-04-07T13:35:46.603Z,5.40
2023-04-07T13:38:13.157Z,5.35
2023-04-07T13:40:39.819Z,5.10
2023-04-07T13:43:07.710Z,5.55
2023-04-07T13:45:45.213Z,4.68
2023-04-07T13:48:12.860Z,4.70
2023-04-07T13:50:39.604Z,5.07
2023-04-07T13:53:14.659Z,5.63
2023-04-07T13:55:42.075Z,5.20
2023-04-07T13:58:27.163Z,5.05
2023-04-07T14:00:53.678Z,5.85
2023-04-07T14:03:20.922Z,4.38
2023-04-07T14:05:47.662Z,4.55
2023-04-07T14:08:14.347Z,4.72
2023-04-07T14:10:40.957Z,5.68
2023-04-07T14:13:07.802Z,5.88
2023-04-07T14:15:34.444Z,3.65
2023-04-07T14:18:01.376Z,3.88
2023-04-07T14:20:28.125Z,5.70
2023-04-07T14:22:54.964Z,4.78
2023-04-07T14:25:22.320Z,5.40
2023-04-07T14:27:49.402Z,5.18
2023-04-07T14:30:16.156Z,4.32
2023-04-07T14:32:42.940Z,3.17
2023-04-07T14:35:09.853Z,4.82
2023-04-07T14:37:36.658Z,5.13
2023-04-07T14:40:05.112Z,4.43
2023-04-07T14:42:32.107Z,4.55
2023-04-07T14:45:00.079Z,5.10
2023-04-07T14:47:40.995Z,5.20
2023-04-07T14:50:07.945Z,4.80
2023-04-07T14:52:34.575Z,5.78
2023-04-07T14:55:01.616Z,5.68
2023-04-07T14:58:02.995Z,6.15
2023-04-07T15:00:29.738Z,5.40
2023-04-07T15:02:56.422Z,5.72
2023-04-07T15:05:23.220Z,5.97
2023-04-07T15:07:52.667Z,6.03
2023-04-07T15:10:19.968Z,5.45
2023-04-07T15:12:47.403Z,5.60
2023-04-07T15:15:14.051Z,6.32
2023-04-07T15:17:44.561Z,6.10
2023-04-07T15:20:13.232Z,6.35
2023-04-07T15:22:40.173Z,5.68
2023-04-07T15:25:07.045Z,5.22
2023-04-07T15:27:33.600Z,5.40
2023-04-07T15:30:00.634Z,5.93
2023-04-07T15:32:27.289Z,5.45
2023-04-07T15:34:53.879Z,5.70
2023-04-07T15:37:20.399Z,5.57
2023-04-07T15:39:47.795Z,6.03
2023-04-07T15:42:14.393Z,6.32
2023-04-07T15:44:40.945Z,6.10
2023-04-07T15:47:08.380Z,6.70
2023-04-07T15:49:37.266Z,6.88
2023-04-07T15:52:07.671Z,6.57
2023-04-07T15:54:34.258Z,5.60
2023-04-07T15:57:01.762Z,6.50
2023-04-07T15:59:30.851Z,6.13
2023-04-07T16:01:57.774Z,6.50
2023-04-07T16:04:24.435Z,6.30
2023-04-07T16:06:51.012Z,5.70
2023-04-07T16:09:17.567Z,5.88
2023-04-07T16:11:44.074Z,6.55
2023-04-07T16:14:10.738Z,5.28
2023-04-07T16:16:38.966Z,5.40
2023-04-07T16:19:05.627Z,5.32
2023-04-07T16:21:32.408Z,5.45
2023-04-07T16:23:58.933Z,5.75
2023-04-07T16:26:26.352Z,5.60
2023-04-07T16:28:52.973Z,5.75
2023-04-07T16:31:19.754Z,5.28
2023-04-07T16:33:46.482Z,6.40
2023-04-07T16:36:13.266Z,6.07
2023-04-07T16:38:39.774Z,5.60
2023-04-07T16:41:10.507Z,6.10
2023-04-07T16:43:37.034Z,6.13
2023-04-07T16:46:05.056Z,6.00
2023-04-07T16:48:31.698Z,5.90
2023-04-07T16:50:58.224Z,6.22
2023-04-07T16:53:34.751Z,5.75
2023-04-07T16:56:01.303Z,6.63
2023-04-07T16:58:33.793Z,5.93
2023-04-07T17:01:00.511Z,5.00
2023-04-07T17:03:27.307Z,6.28
2023-04-07T17:05:53.854Z,5.88
2023-04-07T17:08:21.156Z,6.63
2023-04-07T17:10:47.850Z,6.40
2023-04-07T17:13:14.374Z,6.15
2023-04-07T17:15:41.111Z,6.47
2023-04-07T17:18:07.859Z,8.30
2023-04-07T17:20:34.610Z,7.55
2023-04-07T17:23:01.453Z,7.93
2023-04-07T17:25:27.971Z,6.28
2023-04-07T17:27:55.258Z,6.85
2023-04-07T17:30:22.285Z,6.35
2023-04-07T17:32:50.637Z,6.78
2023-04-07T17:35:17.429Z,6.80
2023-04-07T17:37:43.995Z,6.55
2023-04-07T17:40:11.869Z,6.82
2023-04-07T17:42:38.881Z,7.50
2023-04-07T17:45:08.979Z,6.43
2023-04-07T17:47:35.890Z,7.28
2023-04-07T17:50:03.002Z,6.93
2023-04-07T17:52:32.333Z,6.05
2023-04-07T17:55:01.863Z,6.45
2023-04-07T17:57:30.590Z,6.68
2023-04-07T17:59:57.228Z,7.07
2023-04-07T18:02:23.863Z,7.00
2023-04-07T18:04:50.963Z,7.20
2023-04-07T18:07:17.882Z,7.05
2023-04-07T18:09:44.981Z,7.13
2023-04-07T18:12:12.514Z,6.55
2023-04-07T18:14:39.116Z,7.05
2023-04-07T18:17:05.828Z,6.97
2023-04-07T18:19:33.954Z,6.60
2023-04-07T18:22:00.965Z,6.65
2023-04-07T18:24:27.742Z,6.75
2023-04-07T18:26:54.327Z,6.82
2023-04-07T18:29:20.964Z,6.80
2023-04-07T18:31:47.576Z,6.32
2023-04-07T18:34:14.226Z,7.07
2023-04-07T18:36:41.279Z,6.78
2023-04-07T18:39:07.913Z,7.63
2023-04-07T18:41:34.649Z,6.68
2023-04-07T18:44:01.304Z,6.00
2023-04-07T18:46:27.918Z,6.82
2023-04-07T18:48:54.468Z,6.35
2023-04-07T18:51:21.129Z,6.90
2023-04-07T18:53:54.689Z,6.88
2023-04-07T18:56:22.213Z,7.28
2023-04-07T18:59:01.410Z,7.72
2023-04-07T19:01:28.041Z,7.45
2023-04-07T19:03:54.882Z,7.65
2023-04-07T19:06:21.665Z,8.07
2023-04-07T19:08:49.883Z,8.25
2023-04-07T19:11:16.568Z,8.85
2023-04-07T19:13:43.118Z,8.18
2023-04-07T19:16:09.874Z,7.32
2023-04-07T19:18:36.753Z,7.30
2023-04-07T19:21:03.447Z,7.65
2023-04-07T19:23:30.673Z,8.32
2023-04-07T19:25:57.516Z,8.35
2023-04-07T19:28:24.217Z,8.52
2023-04-07T19:30:50.789Z,7.63
2023-04-07T19:33:17.678Z,8.05
2023-04-07T19:35:52.488Z,8.32
2023-04-07T19:38:19.237Z,7.88
2023-04-07T19:40:45.906Z,7.28
2023-04-07T19:43:14.274Z,7.43
2023-04-07T19:45:40.930Z,7.15
2023-04-07T19:48:07.996Z,8.52
2023-04-07T19:50:41.235Z,7.50
2023-04-07T19:53:21.976Z,9.15
2023-04-07T19:55:49.126Z,7.70
2023-04-07T19:58:22.795Z,7.85
2023-04-07T20:00:52.459Z,7.97
2023-04-07T20:03:20.088Z,8.07
2023-04-07T20:05:46.744Z,8.10
2023-04-07T20:08:13.315Z,7.65
2023-04-07T20:10:39.844Z,8.15
2023-04-07T20:13:06.551Z,7.70
2023-04-07T20:15:33.149Z,7.90
2023-04-07T20:18:00.279Z,7.15
2023-04-07T20:20:26.871Z,8.02
2023-04-07T20:22:53.427Z,8.40
2023-04-07T20:25:20.814Z,8.35
2023-04-07T20:27:50.040Z,9.30
2023-04-07T20:30:17.008Z,9.35
2023-04-07T20:32:45.148Z,8.15
2023-04-07T20:35:13.150Z,8.63
2023-04-07T20:37:39.884Z,7.13
2023-04-07T20:40:07.488Z,9.00
2023-04-07T20:42:34.723Z,8.30
2023-04-07T20:45:04.704Z,8.45
2023-04-07T20:47:32.472Z,8.85
2023-04-07T20:49:59.603Z,8.07
2023-04-07T20:52:27.068Z,10.13
2023-04-07T20:54:56.504Z,8.68
2023-04-07T20:57:25.385Z,7.95
2023-04-07T20:59:52.089Z,9.10
2023-04-07T21:02:18.853Z,8.38
2023-04-07T21:04:46.290Z,8.82
2023-04-07T21:07:12.983Z,8.48
2023-04-07T21:09:39.464Z,8.13
2023-04-07T21:12:05.994Z,8.35
2023-04-07T21:14:32.649Z,8.88
2023-04-07T21:16:59.634Z,7.85
2023-04-07T21:19:26.386Z,8.63
2023-04-07T21:21:53.048Z,8.48
2023-04-07T21:24:21.251Z,8.52
2023-04-07T21:26:47.913Z,8.30
2023-04-07T21:29:14.606Z,7.22
2023-04-07T21:31:41.810Z,7.85
2023-04-07T21:34:08.566Z,7.40
2023-04-07T21:36:35.131Z,6.70
2023-04-07T21:39:01.899Z,7.85
2023-04-07T21:41:28.762Z,7.68
2023-04-07T21:43:55.375Z,7.85
2023-04-07T21:46:22.156Z,7.72
2023-04-07T21:48:49.381Z,7.90
2023-04-07T21:51:17.721Z,9.00
2023-04-07T21:53:44.576Z,8.45
2023-04-07T21:56:13.080Z,7.70
2023-04-07T21:58:41.729Z,8.68
2023-04-07T22:01:08.488Z,8.70
2023-04-07T22:03:35.121Z,7.63
2023-04-07T22:06:01.860Z,8.02
2023-04-07T22:08:28.534Z,8.52
2023-04-07T22:10:55.580Z,7.10
2023-04-07T22:13:22.170Z,7.85
2023-04-07T22:15:50.208Z,7.75
2023-04-07T22:18:17.021Z,9.25
2023-04-07T22:20:43.807Z,9.15
2023-04-07T22:23:10.453Z,8.65
2023-04-07T22:25:36.997Z,9.20
2023-04-07T22:28:03.536Z,10.38
2023-04-07T22:30:30.377Z,10.15
2023-04-07T22:32:56.993Z,8.10
2023-04-07T22:35:23.948Z,8.98
2023-04-07T22:37:50.529Z,8.52
2023-04-07T22:40:17.110Z,8.25
2023-04-07T22:42:43.672Z,8.80
2023-04-07T22:45:10.508Z,7.95
2023-04-07T22:47:37.179Z,10.43
2023-04-07T22:50:03.860Z,9.25
2023-04-07T22:52:30.419Z,9.02
2023-04-07T22:54:57.846Z,8.40
2023-04-07T22:57:25.542Z,9.60
2023-04-07T22:59:52.064Z,9.75
2023-04-07T23:02:18.781Z,9.68
2023-04-07T23:04:45.383Z,9.75
2023-04-07T23:07:11.863Z,10.27
2023-04-07T23:09:38.388Z,8.80
2023-04-07T23:12:04.845Z,9.80
2023-04-07T23:14:31.413Z,10.15
2023-04-07T23:16:58.026Z,10.63
2023-04-07T23:19:24.639Z,10.45
2023-04-07T23:21:52.147Z,9.70
2023-04-07T23:24:18.648Z,10.93
2023-04-07T23:26:45.273Z,9.63
2023-04-07T23:29:12.007Z,10.68
2023-04-07T23:31:39.867Z,10.95
2023-04-07T23:34:06.456Z,11.70
2023-04-07T23:36:33.175Z,10.45
2023-04-07T23:38:59.682Z,10.73
2023-04-07T23:41:26.511Z,10.52
2023-04-07T23:43:53.019Z,10.88
2023-04-07T23:46:19.652Z,10.77
2023-04-07T23:48:46.306Z,10.55
2023-04-07T23:51:12.853Z,9.80
2023-04-07T23:53:41.349Z,9.35
2023-04-07T23:56:08.084Z,11.18
2023-04-07T23:58:34.654Z,11.15
